createdAt,value
2019-05-23T00:00:00.636Z,16.20
2019-05-23T00:02:42.027Z,19.17
2019-05-23T00:05:29.021Z,15.30
2019-05-23T00:08:02.090Z,15.57
2019-05-23T00:10:45.713Z,17.87
2019-05-23T00:13:18.763Z,15.13
2019-05-23T00:15:55.539Z,17.13
2019-05-23T00:18:29.618Z,16.67
2019-05-23T00:21:06.411Z,16.10
2019-05-23T00:23:35.934Z,16.80
2019-05-23T00:26:06.839Z,18.00
2019-05-23T00:28:39.107Z,16.40
2019-05-23T00:31:12.128Z,16.30
2019-05-23T00:33:43.161Z,17.07
2019-05-23T00:36:17.749Z,16.93
2019-05-23T00:38:47.293Z,18.03
2019-05-23T00:41:22.036Z,17.10
2019-05-23T00:43:52.841Z,17.10
2019-05-23T00:46:24.586Z,18.47
2019-05-23T00:49:01.898Z,17.00
2019-05-23T00:51:32.903Z,14.70
2019-05-23T00:54:04.308Z,19.17
2019-05-23T00:56:35.996Z,18.27
2019-05-23T00:59:24.253Z,18.73
2019-05-23T01:01:40.433Z,16.90
2019-05-23T01:04:15.402Z,19.87
2019-05-23T01:06:46.463Z,17.57
2019-05-23T01:09:19.071Z,17.83
2019-05-23T01:11:51.309Z,16.70
2019-05-23T01:14:24.041Z,16.07
2019-05-23T01:16:57.380Z,18.13
2019-05-23T01:19:29.074Z,16.70
2019-05-23T01:22:11.993Z,17.97
2019-05-23T01:24:43.024Z,18.90
2019-05-23T01:27:17.229Z,19.37
2019-05-23T01:29:50.413Z,19.17
2019-05-23T01:32:26.307Z,15.50
2019-05-23T01:34:56.785Z,16.77
2019-05-23T01:37:26.750Z,19.07
2019-05-23T01:39:56.633Z,17.90
2019-05-23T01:42:26.900Z,17.40
2019-05-23T01:44:58.660Z,16.00
2019-05-23T01:47:28.419Z,17.30
2019-05-23T01:49:59.047Z,18.73
2019-05-23T01:52:30.064Z,19.07
2019-05-23T01:54:59.993Z,16.97
2019-05-23T01:57:30.201Z,19.27
2019-05-23T02:00:10.031Z,16.93
2019-05-23T02:02:34.298Z,22.53
2019-05-23T02:05:05.999Z,20.23
2019-05-23T02:07:37.344Z,19.20
2019-05-23T02:10:09.670Z,17.03
2019-05-23T02:12:40.920Z,20.07
2019-05-23T02:15:11.880Z,17.40
2019-05-23T02:17:41.788Z,17.03
2019-05-23T02:20:18.165Z,18.63
2019-05-23T02:22:48.470Z,18.33
2019-05-23T02:25:21.467Z,19.37
2019-05-23T02:27:51.153Z,19.53
2019-05-23T02:30:34.141Z,15.67
2019-05-23T02:32:54.052Z,21.73
2019-05-23T02:35:23.570Z,19.93
2019-05-23T02:37:57.006Z,20.03
2019-05-23T02:40:33.816Z,17.60
2019-05-23T02:43:07.806Z,16.93
2019-05-23T02:45:43.615Z,18.30
2019-05-23T02:48:17.546Z,15.53
2019-05-23T02:51:02.103Z,18.30
2019-05-23T02:53:37.267Z,17.70
2019-05-23T02:56:14.857Z,18.90
2019-05-23T02:59:12.969Z,18.13
2019-05-23T03:01:57.583Z,19.93
2019-05-23T03:04:31.042Z,19.00
2019-05-23T03:07:04.880Z,15.70
2019-05-23T03:09:36.742Z,19.90
2019-05-23T03:12:09.083Z,15.60
2019-05-23T03:14:42.029Z,16.33
2019-05-23T03:17:16.044Z,20.27
2019-05-23T03:19:55.885Z,19.37
2019-05-23T03:22:37.497Z,18.17
2019-05-23T03:25:20.160Z,20.60
2019-05-23T03:27:50.507Z,18.67
2019-05-23T03:30:27.680Z,18.73
2019-05-23T03:33:01.784Z,14.93
2019-05-23T03:35:36.025Z,18.47
2019-05-23T03:38:05.864Z,17.57
2019-05-23T03:40:36.369Z,17.67
2019-05-23T03:43:08.480Z,16.43
2019-05-23T03:45:40.272Z,17.47
2019-05-23T03:48:11.591Z,18.83
2019-05-23T03:50:41.007Z,17.27
2019-05-23T03:53:10.834Z,17.37
2019-05-23T03:55:42.265Z,17.77
2019-05-23T03:58:12.842Z,17.43
2019-05-23T04:00:47.090Z,19.47
2019-05-23T04:03:19.034Z,20.93
2019-05-23T04:05:53.521Z,19.43
2019-05-23T04:08:28.812Z,17.07
2019-05-23T04:11:03.208Z,15.77
2019-05-23T04:13:35.846Z,17.50
2019-05-23T04:16:09.593Z,17.30
2019-05-23T04:18:40.838Z,17.80
2019-05-23T04:21:13.018Z,19.83
2019-05-23T04:23:44.840Z,16.40
2019-05-23T04:26:15.966Z,21.13
2019-05-23T04:28:49.753Z,19.30
2019-05-23T04:31:22.277Z,17.83
2019-05-23T04:33:58.082Z,20.07
2019-05-23T04:36:27.472Z,18.97
2019-05-23T04:39:05.721Z,18.77
2019-05-23T04:41:35.187Z,18.80
2019-05-23T04:44:06.238Z,17.97
2019-05-23T04:46:36.151Z,19.43
2019-05-23T04:49:05.669Z,21.17
2019-05-23T04:51:40.001Z,20.23
2019-05-23T04:54:15.664Z,19.30
2019-05-23T04:56:51.275Z,20.60
2019-05-23T04:59:23.242Z,20.07
2019-05-23T05:01:57.454Z,22.43
2019-05-23T05:04:31.623Z,20.67
2019-05-23T05:07:00.982Z,21.80
2019-05-23T05:09:32.393Z,24.17
2019-05-23T05:12:02.683Z,18.30
2019-05-23T05:14:32.555Z,21.10
2019-05-23T05:17:03.185Z,17.60
2019-05-23T05:19:33.056Z,22.80
2019-05-23T05:22:02.491Z,19.50
2019-05-23T05:24:32.038Z,20.20
2019-05-23T05:27:01.782Z,23.37
2019-05-23T05:29:31.235Z,18.27
2019-05-23T05:32:03.661Z,20.40
2019-05-23T05:34:32.011Z,19.53
2019-05-23T05:37:02.427Z,16.67
2019-05-23T05:39:32.272Z,20.83
2019-05-23T05:42:01.827Z,21.00
2019-05-23T05:44:32.168Z,18.60
2019-05-23T05:47:02.296Z,21.03
2019-05-23T05:49:31.818Z,19.63
2019-05-23T05:52:01.339Z,19.73
2019-05-23T05:54:30.717Z,21.93
2019-05-23T05:57:00.224Z,21.90
2019-05-23T05:59:30.321Z,17.47
2019-05-23T06:02:00.308Z,19.30
2019-05-23T06:04:33.063Z,24.43
2019-05-23T06:07:16.017Z,22.80
2019-05-23T06:09:47.130Z,22.57
2019-05-23T06:12:17.404Z,22.97
2019-05-23T06:14:46.980Z,22.87
2019-05-23T06:17:18.176Z,21.87
2019-05-23T06:19:48.272Z,24.47
2019-05-23T06:22:18.549Z,20.70
2019-05-23T06:24:53.618Z,21.30
2019-05-23T06:27:22.502Z,21.50
2019-05-23T06:29:52.379Z,19.63
2019-05-23T06:32:24.019Z,21.60
2019-05-23T06:34:55.261Z,25.73
2019-05-23T06:37:25.030Z,28.30
2019-05-23T06:39:54.847Z,25.80
2019-05-23T06:42:24.319Z,23.17
2019-05-23T06:44:55.194Z,22.20
2019-05-23T06:47:24.990Z,22.03
2019-05-23T06:49:54.595Z,21.50
2019-05-23T06:52:24.204Z,22.87
2019-05-23T06:54:53.790Z,24.63
2019-05-23T06:57:24.097Z,25.37
2019-05-23T06:59:53.570Z,24.60
2019-05-23T07:02:23.389Z,24.30
2019-05-23T07:04:53.156Z,26.43
2019-05-23T07:07:22.997Z,29.37
2019-05-23T07:09:52.669Z,29.60
2019-05-23T07:12:22.565Z,35.03
2019-05-23T07:14:52.070Z,35.40
2019-05-23T07:17:24.171Z,36.37
2019-05-23T07:19:53.978Z,34.83
2019-05-23T07:22:24.366Z,37.00
2019-05-23T07:24:57.955Z,33.13
2019-05-23T07:27:27.370Z,34.37
2019-05-23T07:29:56.889Z,33.30
2019-05-23T07:32:26.314Z,34.97
2019-05-23T07:34:55.765Z,41.90
2019-05-23T07:37:25.204Z,34.20
2019-05-23T07:39:54.634Z,36.90
2019-05-23T07:42:24.410Z,39.20
2019-05-23T07:44:55.628Z,35.00
2019-05-23T07:47:26.142Z,33.17
2019-05-23T07:49:55.607Z,36.43
2019-05-23T07:52:25.287Z,31.97
2019-05-23T07:54:56.390Z,31.70
2019-05-23T07:57:27.302Z,31.93
2019-05-23T07:59:57.086Z,29.37
2019-05-23T08:02:36.456Z,28.07
2019-05-23T08:05:08.338Z,29.10
2019-05-23T08:07:38.406Z,25.97
2019-05-23T08:10:09.875Z,24.05
2019-05-23T08:12:39.703Z,23.90
2019-05-23T08:15:11.166Z,26.05
2019-05-23T08:17:40.621Z,25.48
2019-05-23T08:20:12.759Z,25.50
2019-05-23T08:22:42.324Z,20.60
2019-05-23T08:25:12.020Z,19.32
2019-05-23T08:27:41.493Z,16.77
2019-05-23T08:30:11.649Z,18.40
2019-05-23T08:32:41.038Z,18.65
2019-05-23T08:35:16.206Z,17.45
2019-05-23T08:37:42.652Z,16.02
2019-05-23T08:40:14.883Z,15.53
2019-05-23T08:42:45.916Z,19.32
2019-05-23T08:45:17.681Z,16.70
2019-05-23T08:47:47.063Z,18.48
2019-05-23T08:50:19.300Z,18.07
2019-05-23T08:52:49.021Z,14.80
2019-05-23T08:55:27.336Z,15.60
2019-05-23T08:57:58.032Z,18.67
2019-05-23T09:00:32.143Z,21.17
2019-05-23T09:03:01.952Z,15.58
2019-05-23T09:05:33.162Z,16.07
2019-05-23T09:08:02.779Z,20.50
2019-05-23T09:10:32.918Z,19.87
2019-05-23T09:13:02.396Z,21.77
2019-05-23T09:15:32.045Z,17.25
2019-05-23T09:18:02.033Z,18.35
2019-05-23T09:20:32.497Z,19.05
2019-05-23T09:23:02.248Z,22.48
2019-05-23T09:25:31.983Z,22.32
2019-05-23T09:28:01.749Z,18.80
2019-05-23T09:30:33.217Z,19.85
2019-05-23T09:33:03.102Z,19.50
2019-05-23T09:35:33.543Z,20.20
2019-05-23T09:38:03.379Z,19.75
2019-05-23T09:40:33.007Z,17.25
2019-05-23T09:43:02.467Z,15.45
2019-05-23T09:45:32.275Z,19.63
2019-05-23T09:48:02.260Z,19.32
2019-05-23T09:50:32.453Z,14.20
2019-05-23T09:53:02.188Z,16.87
2019-05-23T09:55:32.357Z,16.17
2019-05-23T09:58:01.859Z,18.73
2019-05-23T10:00:34.123Z,15.77
2019-05-23T10:03:04.616Z,12.68
2019-05-23T10:05:42.974Z,14.83
2019-05-23T10:08:06.047Z,12.68
2019-05-23T10:10:36.147Z,14.05
2019-05-23T10:13:06.081Z,16.02
2019-05-23T10:15:39.875Z,15.80
2019-05-23T10:18:11.331Z,17.90
2019-05-23T10:20:40.686Z,17.02
2019-05-23T10:23:10.174Z,17.95
2019-05-23T10:25:39.587Z,13.98
2019-05-23T10:28:09.450Z,13.43
2019-05-23T10:30:39.476Z,13.88
2019-05-23T10:33:12.025Z,13.62
2019-05-23T10:35:56.898Z,14.73
2019-05-23T10:38:11.980Z,14.60
2019-05-23T10:40:41.769Z,18.50
2019-05-23T10:43:11.971Z,14.25
2019-05-23T10:45:41.568Z,16.87
2019-05-23T10:48:11.826Z,11.83
2019-05-23T10:50:44.747Z,12.60
2019-05-23T10:53:12.515Z,12.30
2019-05-23T10:55:41.977Z,10.28
2019-05-23T10:58:11.564Z,12.20
2019-05-23T11:00:42.226Z,14.45
2019-05-23T11:03:13.799Z,16.10
2019-05-23T11:05:43.435Z,13.78
2019-05-23T11:08:13.033Z,12.18
2019-05-23T11:10:43.018Z,10.13
2019-05-23T11:13:12.576Z,14.65
2019-05-23T11:15:42.294Z,12.65
2019-05-23T11:18:11.888Z,12.23
2019-05-23T11:20:41.961Z,11.35
2019-05-23T11:23:13.042Z,8.38
2019-05-23T11:25:42.722Z,8.80
2019-05-23T11:28:12.243Z,8.75
2019-05-23T11:30:45.947Z,10.75
2019-05-23T11:33:15.786Z,10.18
2019-05-23T11:35:47.054Z,10.20
2019-05-23T11:38:16.803Z,10.90
2019-05-23T11:40:46.541Z,12.45
2019-05-23T11:43:15.990Z,14.73
2019-05-23T11:45:47.661Z,11.68
2019-05-23T11:48:18.087Z,11.45
2019-05-23T11:50:47.977Z,11.75
2019-05-23T11:53:17.510Z,12.80
2019-05-23T11:55:46.987Z,11.93
2019-05-23T11:58:17.049Z,12.53
2019-05-23T12:01:10.417Z,12.90
2019-05-23T12:03:40.223Z,11.90
2019-05-23T12:06:09.870Z,11.85
2019-05-23T12:08:39.402Z,12.82
2019-05-23T12:11:08.767Z,11.78
2019-05-23T12:13:38.176Z,10.25
2019-05-23T12:16:08.563Z,12.10
2019-05-23T12:18:37.948Z,11.45
2019-05-23T12:21:07.662Z,10.85
2019-05-23T12:23:37.211Z,12.25
2019-05-23T12:26:06.730Z,11.08
2019-05-23T12:28:36.251Z,13.48
2019-05-23T12:31:06.220Z,14.38
2019-05-23T12:33:35.892Z,13.35
2019-05-23T12:36:06.009Z,13.28
2019-05-23T12:38:35.477Z,13.00
2019-05-23T12:41:05.983Z,12.00
2019-05-23T12:43:35.379Z,10.13
2019-05-23T12:46:04.942Z,10.15
2019-05-23T12:48:47.865Z,8.43
2019-05-23T12:51:18.977Z,9.00
2019-05-23T12:53:48.437Z,11.03
2019-05-23T12:56:17.907Z,9.38
2019-05-23T12:58:47.674Z,14.20
2019-05-23T13:01:18.514Z,9.88
2019-05-23T13:03:48.050Z,9.73
2019-05-23T13:06:17.532Z,12.03
2019-05-23T13:08:46.979Z,11.12
2019-05-23T13:11:16.585Z,9.30
2019-05-23T13:13:45.963Z,9.58
2019-05-23T13:16:15.424Z,11.08
2019-05-23T13:18:44.887Z,9.33
2019-05-23T13:21:14.357Z,8.58
2019-05-23T13:23:43.857Z,7.42
2019-05-23T13:26:13.706Z,8.15
2019-05-23T13:28:43.160Z,7.30
2019-05-23T13:31:12.709Z,8.58
2019-05-23T13:33:42.175Z,7.60
2019-05-23T13:36:12.173Z,9.13
2019-05-23T13:38:42.365Z,10.80
2019-05-23T13:41:11.822Z,10.68
2019-05-23T13:43:41.265Z,10.98
2019-05-23T13:46:11.216Z,8.68
2019-05-23T13:48:40.903Z,9.38
2019-05-23T13:51:10.418Z,6.25
2019-05-23T13:53:39.954Z,9.70
2019-05-23T13:56:09.509Z,8.30
2019-05-23T13:58:39.342Z,9.50
2019-05-23T14:01:11.356Z,9.25
2019-05-23T14:03:41.153Z,8.55
2019-05-23T14:06:11.108Z,8.30
2019-05-23T14:08:40.556Z,9.00
2019-05-23T14:11:10.530Z,8.80
2019-05-23T14:13:39.907Z,11.55
2019-05-23T14:16:09.736Z,8.30
2019-05-23T14:18:39.492Z,9.55
2019-05-23T14:21:10.044Z,7.75
2019-05-23T14:23:39.577Z,7.40
2019-05-23T14:26:10.986Z,8.18
2019-05-23T14:28:40.747Z,8.80
2019-05-23T14:31:14.338Z,7.80
2019-05-23T14:33:45.638Z,6.80
2019-05-23T14:36:25.763Z,10.78
2019-05-23T14:38:56.945Z,8.83
2019-05-23T14:41:43.825Z,8.83
2019-05-23T14:43:59.266Z,6.75
2019-05-23T14:46:30.404Z,6.87
2019-05-23T14:49:19.939Z,10.88
2019-05-23T14:51:51.282Z,8.60
2019-05-23T14:54:28.042Z,9.73
2019-05-23T14:56:57.899Z,7.62
2019-05-23T14:59:27.505Z,7.87
2019-05-23T15:01:58.213Z,8.68
2019-05-23T15:04:28.099Z,6.58
2019-05-23T15:06:57.604Z,10.85
2019-05-23T15:09:27.207Z,6.72
2019-05-23T15:11:56.861Z,5.60
2019-05-23T15:14:26.447Z,9.53
2019-05-23T15:16:56.012Z,7.50
2019-05-23T15:19:40.094Z,6.95
2019-05-23T15:21:57.077Z,6.53
2019-05-23T15:24:27.297Z,6.65
2019-05-23T15:26:56.710Z,9.03
2019-05-23T15:29:29.114Z,8.05
2019-05-23T15:32:02.272Z,13.00
2019-05-23T15:34:29.234Z,7.10
2019-05-23T15:36:58.740Z,7.20
2019-05-23T15:39:28.578Z,5.97
2019-05-23T15:41:58.077Z,9.35
2019-05-23T15:44:29.628Z,7.83
2019-05-23T15:46:58.999Z,6.05
2019-05-23T15:49:28.483Z,9.20
2019-05-23T15:52:12.316Z,8.23
2019-05-23T15:54:52.406Z,7.10
2019-05-23T15:57:23.462Z,9.23
2019-05-23T15:59:54.596Z,6.30
2019-05-23T16:02:26.058Z,6.42
2019-05-23T16:04:57.293Z,6.08
2019-05-23T16:07:26.972Z,5.95
2019-05-23T16:09:56.546Z,5.58
2019-05-23T16:12:27.257Z,6.47
2019-05-23T16:14:57.623Z,5.75
2019-05-23T16:17:27.212Z,7.83
2019-05-23T16:19:56.985Z,10.32
2019-05-23T16:22:26.894Z,7.83
2019-05-23T16:24:56.561Z,5.80
2019-05-23T16:27:26.089Z,7.08
2019-05-23T16:29:55.517Z,9.23
2019-05-23T16:32:24.978Z,5.55
2019-05-23T16:34:54.388Z,7.62
2019-05-23T16:37:23.993Z,6.37
2019-05-23T16:39:53.470Z,6.05
2019-05-23T16:42:22.898Z,6.75
2019-05-23T16:44:52.477Z,10.28
2019-05-23T16:47:23.051Z,9.18
2019-05-23T16:49:52.496Z,6.95
2019-05-23T16:52:22.151Z,4.42
2019-05-23T16:54:53.529Z,5.12
2019-05-23T16:57:24.667Z,5.75
2019-05-23T16:59:58.569Z,6.22
2019-05-23T17:02:35.536Z,5.50
2019-05-23T17:05:17.263Z,5.05
2019-05-23T17:08:04.478Z,5.85
2019-05-23T17:10:44.969Z,5.85
2019-05-23T17:13:28.407Z,5.03
2019-05-23T17:15:57.767Z,4.62
2019-05-23T17:18:47.078Z,4.47
2019-05-23T17:21:21.622Z,5.58
2019-05-23T17:23:53.017Z,3.30
2019-05-23T17:26:24.134Z,6.90
2019-05-23T17:28:55.193Z,4.08
2019-05-23T17:31:32.214Z,5.50
2019-05-23T17:34:01.775Z,5.53
2019-05-23T17:36:31.204Z,7.12
2019-05-23T17:39:00.677Z,6.25
2019-05-23T17:41:30.505Z,3.35
2019-05-23T17:44:00.108Z,3.67
2019-05-23T17:46:29.524Z,6.10
2019-05-23T17:48:59.286Z,3.90
2019-05-23T17:51:29.143Z,2.80
2019-05-23T17:53:58.567Z,4.08
2019-05-23T17:56:28.175Z,4.85
2019-05-23T17:58:57.660Z,4.65
2019-05-23T18:01:27.497Z,4.53
2019-05-23T18:03:57.029Z,5.75
2019-05-23T18:06:26.799Z,4.45
2019-05-23T18:08:56.971Z,4.15
2019-05-23T18:11:27.042Z,4.33
2019-05-23T18:13:56.721Z,4.58
2019-05-23T18:16:27.372Z,5.28
2019-05-23T18:18:56.814Z,4.53
2019-05-23T18:21:27.532Z,3.20
2019-05-23T18:23:57.366Z,5.33
2019-05-23T18:26:27.270Z,3.20
2019-05-23T18:28:56.767Z,4.30
2019-05-23T18:31:27.941Z,4.40
2019-05-23T18:33:58.105Z,5.33
2019-05-23T18:36:28.705Z,4.83
2019-05-23T18:38:58.508Z,9.77
2019-05-23T18:41:28.703Z,3.40
2019-05-23T18:43:59.481Z,4.07
2019-05-23T18:46:37.661Z,5.13
2019-05-23T18:49:09.332Z,5.13
2019-05-23T18:51:40.267Z,8.33
2019-05-23T18:54:10.191Z,4.00
2019-05-23T18:56:39.756Z,5.73
2019-05-23T18:59:09.991Z,4.90
2019-05-23T19:01:40.042Z,3.77
2019-05-23T19:04:09.850Z,4.60
2019-05-23T19:06:39.440Z,6.00
2019-05-23T19:09:11.791Z,5.13
2019-05-23T19:11:41.880Z,5.40
2019-05-23T19:14:11.864Z,3.63
2019-05-23T19:16:41.500Z,7.30
2019-05-23T19:19:11.262Z,5.67
2019-05-23T19:21:40.736Z,6.27
2019-05-23T19:24:11.159Z,5.50
2019-05-23T19:26:41.045Z,4.47
2019-05-23T19:29:11.037Z,6.17
2019-05-23T19:31:40.687Z,4.70
2019-05-23T19:34:10.280Z,4.93
2019-05-23T19:36:40.750Z,5.03
2019-05-23T19:39:13.180Z,6.57
2019-05-23T19:41:43.045Z,5.97
2019-05-23T19:44:12.673Z,4.60
2019-05-23T19:46:42.396Z,5.30
2019-05-23T19:49:12.933Z,5.90
2019-05-23T19:51:42.653Z,5.77
2019-05-23T19:54:12.270Z,4.27
2019-05-23T19:56:42.330Z,8.47
2019-05-23T19:59:12.060Z,6.47
2019-05-23T20:01:46.140Z,4.00
2019-05-23T20:04:16.386Z,6.33
2019-05-23T20:06:45.957Z,6.50
2019-05-23T20:09:17.270Z,4.47
2019-05-23T20:11:54.491Z,5.93
2019-05-23T20:14:18.030Z,7.77
2019-05-23T20:16:47.505Z,4.77
2019-05-23T20:19:17.193Z,5.50
2019-05-23T20:21:47.203Z,7.50
2019-05-23T20:24:16.956Z,5.27
2019-05-23T20:26:46.441Z,6.03
2019-05-23T20:29:15.989Z,8.00
2019-05-23T20:31:48.479Z,5.77
2019-05-23T20:34:16.617Z,4.63
2019-05-23T20:36:46.066Z,6.03
2019-05-23T20:39:15.739Z,8.50
2019-05-23T20:41:45.252Z,6.47
2019-05-23T20:44:14.808Z,6.43
2019-05-23T20:46:45.874Z,5.83
2019-05-23T20:49:19.807Z,5.97
2019-05-23T20:51:53.863Z,8.63
2019-05-23T20:54:33.783Z,8.07
2019-05-23T20:57:06.777Z,9.13
2019-05-23T20:59:45.037Z,6.37
2019-05-23T21:02:23.186Z,5.53
2019-05-23T21:04:54.213Z,8.17
2019-05-23T21:07:27.864Z,5.50
2019-05-23T21:10:06.232Z,6.27
2019-05-23T21:12:41.581Z,6.53
2019-05-23T21:15:14.157Z,7.67
2019-05-23T21:17:50.932Z,5.77
2019-05-23T21:20:28.602Z,6.83
2019-05-23T21:23:06.783Z,8.10
2019-05-23T21:25:41.178Z,8.37
2019-05-23T21:28:12.249Z,6.97
2019-05-23T21:30:52.307Z,8.07
2019-05-23T21:33:26.754Z,9.30
2019-05-23T21:36:01.357Z,10.23
2019-05-23T21:38:33.799Z,9.67
2019-05-23T21:41:11.656Z,12.70
2019-05-23T21:43:49.662Z,12.83
2019-05-23T21:46:24.452Z,12.53
2019-05-23T21:48:54.069Z,10.97
2019-05-23T21:51:34.802Z,7.40
2019-05-23T21:54:10.479Z,10.90
2019-05-23T21:56:45.162Z,10.73
2019-05-23T21:59:14.722Z,9.53
2019-05-23T22:02:01.504Z,9.17
2019-05-23T22:04:35.919Z,10.13
2019-05-23T22:07:09.562Z,11.73
2019-05-23T22:09:43.235Z,10.67
2019-05-23T22:12:13.015Z,10.73
2019-05-23T22:14:44.309Z,11.83
2019-05-23T22:17:22.375Z,9.20
2019-05-23T22:19:55.879Z,10.07
2019-05-23T22:22:28.427Z,10.53
2019-05-23T22:24:59.384Z,9.60
2019-05-23T22:27:36.108Z,16.00
2019-05-23T22:30:07.461Z,9.93
2019-05-23T22:32:38.468Z,14.10
2019-05-23T22:35:12.544Z,9.47
2019-05-23T22:38:03.754Z,10.53
2019-05-23T22:40:38.481Z,9.97
2019-05-23T22:43:20.116Z,12.97
2019-05-23T22:45:40.658Z,12.03
2019-05-23T22:48:18.789Z,8.83
2019-05-23T22:50:45.587Z,14.23
2019-05-23T22:53:16.520Z,8.67
2019-05-23T22:55:53.377Z,11.70
2019-05-23T22:58:27.035Z,11.33
2019-05-23T23:00:59.804Z,13.27
2019-05-23T23:03:30.762Z,9.60
2019-05-23T23:06:06.279Z,11.17
2019-05-23T23:08:55.338Z,12.40
2019-05-23T23:11:26.235Z,11.00
2019-05-23T23:13:57.914Z,9.57
2019-05-23T23:16:32.668Z,10.07
2019-05-23T23:19:05.791Z,10.13
2019-05-23T23:21:37.938Z,10.20
2019-05-23T23:24:13.284Z,10.77
2019-05-23T23:26:46.197Z,11.03
2019-05-23T23:29:24.494Z,11.50
2019-05-23T23:32:03.815Z,10.80
2019-05-23T23:34:46.531Z,10.83
2019-05-23T23:37:22.678Z,9.60
2019-05-23T23:39:55.834Z,11.20
2019-05-23T23:42:26.910Z,10.87
2019-05-23T23:45:17.308Z,10.07
2019-05-23T23:48:07.083Z,12.03
2019-05-23T23:50:55.607Z,10.10
2019-05-23T23:53:46.870Z,11.03
2019-05-23T23:56:37.284Z,11.83
2019-05-23T23:59:09.384Z,9.80
